sensor_id;sensor_type;location;lat;lon;timestamp;temperature;humidity
54190;DHT22;40340;53.208;6.582;2022-11-04T00:01:56;11.30;99.90
54190;DHT22;40340;53.208;6.582;2022-11-04T00:04:24;11.30;99.90
54190;DHT22;40340;53.208;6.582;2022-11-04T00:06:50;11.20;99.90
54190;DHT22;40340;53.208;6.582;2022-11-04T00:09:24;11.30;99.90
54190;DHT22;40340;53.208;6.582;2022-11-04T00:11:50;11.30;99.90
54190;DHT22;40340;53.208;6.582;2022-11-04T00:14:35;11.30;99.90
54190;DHT22;40340;53.208;6.582;2022-11-04T00:17:02;11.30;99.90
54190;DHT22;40340;53.208;6.582;2022-11-04T00:19:49;11.30;99.90
54190;DHT22;40340;53.208;6.582;2022-11-04T00:22:35;11.30;99.90
54190;DHT22;40340;53.208;6.582;2022-11-04T00:25:19;11.20;99.90
54190;DHT22;40340;53.208;6.582;2022-11-04T00:28:08;11.30;99.90
54190;DHT22;40340;53.208;6.582;2022-11-04T00:30:54;11.30;99.90
54190;DHT22;40340;53.208;6.582;2022-11-04T00:33:20;11.30;99.90
54190;DHT22;40340;53.208;6.582;2022-11-04T00:35:54;11.30;99.90
54190;DHT22;40340;53.208;6.582;2022-11-04T00:38:21;11.30;99.90
54190;DHT22;40340;53.208;6.582;2022-11-04T00:40:47;11.30;99.90
54190;DHT22;40340;53.208;6.582;2022-11-04T00:43:12;11.20;99.90
54190;DHT22;40340;53.208;6.582;2022-11-04T00:45:40;11.20;99.90
54190;DHT22;40340;53.208;6.582;2022-11-04T00:48:06;11.20;99.90
54190;DHT22;40340;53.208;6.582;2022-11-04T00:50:31;11.10;99.90
54190;DHT22;40340;53.208;6.582;2022-11-04T00:53:01;11.10;99.90
54190;DHT22;40340;53.208;6.582;2022-11-04T00:55:28;11.00;99.90
54190;DHT22;40340;53.208;6.582;2022-11-04T00:57:57;10.90;99.90
54190;DHT22;40340;53.208;6.582;2022-11-04T01:00:22;11.00;99.90
54190;DHT22;40340;53.208;6.582;2022-11-04T01:02:48;10.90;99.90
54190;DHT22;40340;53.208;6.582;2022-11-04T01:05:14;10.80;99.90
54190;DHT22;40340;53.208;6.582;2022-11-04T01:07:40;10.70;99.90
54190;DHT22;40340;53.208;6.582;2022-11-04T01:10:06;10.70;99.90
54190;DHT22;40340;53.208;6.582;2022-11-04T01:12:32;10.70;99.90
54190;DHT22;40340;53.208;6.582;2022-11-04T01:14:57;10.60;99.90
54190;DHT22;40340;53.208;6.582;2022-11-04T01:17:23;10.60;99.90
54190;DHT22;40340;53.208;6.582;2022-11-04T01:19:49;10.60;99.90
54190;DHT22;40340;53.208;6.582;2022-11-04T01:22:15;10.60;99.90
54190;DHT22;40340;53.208;6.582;2022-11-04T01:24:40;10.50;99.90
54190;DHT22;40340;53.208;6.582;2022-11-04T01:27:06;10.60;99.90
54190;DHT22;40340;53.208;6.582;2022-11-04T01:29:31;10.50;99.90
54190;DHT22;40340;53.208;6.582;2022-11-04T01:31:57;10.50;99.90
54190;DHT22;40340;53.208;6.582;2022-11-04T01:34:23;10.50;99.90
54190;DHT22;40340;53.208;6.582;2022-11-04T01:36:48;10.70;99.90
54190;DHT22;40340;53.208;6.582;2022-11-04T01:39:14;10.60;99.90
54190;DHT22;40340;53.208;6.582;2022-11-04T01:41:40;10.40;99.90
54190;DHT22;40340;53.208;6.582;2022-11-04T01:47:23;10.40;99.90
54190;DHT22;40340;53.208;6.582;2022-11-04T01:50:00;10.40;99.90
54190;DHT22;40340;53.208;6.582;2022-11-04T01:52:28;10.40;99.90
54190;DHT22;40340;53.208;6.582;2022-11-04T01:54:58;10.40;99.90
54190;DHT22;40340;53.208;6.582;2022-11-04T01:57:32;10.40;99.90
54190;DHT22;40340;53.208;6.582;2022-11-04T02:00:01;10.50;99.90
54190;DHT22;40340;53.208;6.582;2022-11-04T02:02:27;10.40;99.90
54190;DHT22;40340;53.208;6.582;2022-11-04T02:04:52;10.40;99.90
54190;DHT22;40340;53.208;6.582;2022-11-04T02:07:18;10.40;99.90
54190;DHT22;40340;53.208;6.582;2022-11-04T02:09:44;10.40;99.90
54190;DHT22;40340;53.208;6.582;2022-11-04T02:12:10;10.50;99.90
54190;DHT22;40340;53.208;6.582;2022-11-04T02:14:54;10.50;99.90
54190;DHT22;40340;53.208;6.582;2022-11-04T02:27:02;10.50;99.90
54190;DHT22;40340;53.208;6.582;2022-11-04T02:31:51;10.50;99.90
54190;DHT22;40340;53.208;6.582;2022-11-04T02:42:55;10.40;99.90
54190;DHT22;40340;53.208;6.582;2022-11-04T02:47:53;10.40;99.90
54190;DHT22;40340;53.208;6.582;2022-11-04T02:50:29;10.40;99.90
54190;DHT22;40340;53.208;6.582;2022-11-04T02:55:49;10.30;99.90
54190;DHT22;40340;53.208;6.582;2022-11-04T02:58:30;10.30;99.90
54190;DHT22;40340;53.208;6.582;2022-11-04T03:00:58;10.30;99.90
54190;DHT22;40340;53.208;6.582;2022-11-04T03:03:28;10.30;99.90
54190;DHT22;40340;53.208;6.582;2022-11-04T03:05:56;10.30;99.90
54190;DHT22;40340;53.208;6.582;2022-11-04T03:08:29;10.30;99.90
54190;DHT22;40340;53.208;6.582;2022-11-04T03:11:21;10.30;99.90
54190;DHT22;40340;53.208;6.582;2022-11-04T03:14:02;10.30;99.90
54190;DHT22;40340;53.208;6.582;2022-11-04T03:19:12;10.30;99.90
54190;DHT22;40340;53.208;6.582;2022-11-04T03:21:44;10.30;99.90
54190;DHT22;40340;53.208;6.582;2022-11-04T03:24:14;10.40;99.90
54190;DHT22;40340;53.208;6.582;2022-11-04T03:26:53;10.30;99.90
54190;DHT22;40340;53.208;6.582;2022-11-04T03:29:28;10.30;99.90
54190;DHT22;40340;53.208;6.582;2022-11-04T03:32:21;10.30;99.90
54190;DHT22;40340;53.208;6.582;2022-11-04T03:34:48;10.30;99.90
54190;DHT22;40340;53.208;6.582;2022-11-04T03:37:14;10.30;99.90
54190;DHT22;40340;53.208;6.582;2022-11-04T03:39:40;10.30;99.90
54190;DHT22;40340;53.208;6.582;2022-11-04T03:42:08;10.30;99.90
54190;DHT22;40340;53.208;6.582;2022-11-04T03:44:57;10.30;99.90
54190;DHT22;40340;53.208;6.582;2022-11-04T03:47:26;10.40;99.90
54190;DHT22;40340;53.208;6.582;2022-11-04T03:50:22;10.40;99.90
54190;DHT22;40340;53.208;6.582;2022-11-04T03:52:50;10.40;99.90
54190;DHT22;40340;53.208;6.582;2022-11-04T03:55:15;10.40;99.90
54190;DHT22;40340;53.208;6.582;2022-11-04T03:57:48;10.40;99.90
54190;DHT22;40340;53.208;6.582;2022-11-04T04:00:19;10.40;99.90
54190;DHT22;40340;53.208;6.582;2022-11-04T04:05:37;10.30;99.90
54190;DHT22;40340;53.208;6.582;2022-11-04T04:11:16;10.30;99.90
54190;DHT22;40340;53.208;6.582;2022-11-04T04:16:44;10.40;99.90
54190;DHT22;40340;53.208;6.582;2022-11-04T04:19:18;10.40;99.90
54190;DHT22;40340;53.208;6.582;2022-11-04T04:22:09;10.40;99.90
54190;DHT22;40340;53.208;6.582;2022-11-04T04:24:40;10.40;99.90
54190;DHT22;40340;53.208;6.582;2022-11-04T04:27:27;10.40;99.90
54190;DHT22;40340;53.208;6.582;2022-11-04T04:30:03;10.40;99.90
54190;DHT22;40340;53.208;6.582;2022-11-04T04:32:36;10.30;99.90
54190;DHT22;40340;53.208;6.582;2022-11-04T04:35:05;10.30;99.90
54190;DHT22;40340;53.208;6.582;2022-11-04T04:37:51;10.30;99.90
54190;DHT22;40340;53.208;6.582;2022-11-04T04:40:21;10.20;99.90
54190;DHT22;40340;53.208;6.582;2022-11-04T04:43:12;10.10;99.90
54190;DHT22;40340;53.208;6.582;2022-11-04T04:45:57;10.10;99.90
54190;DHT22;40340;53.208;6.582;2022-11-04T04:48:23;10.00;99.90
54190;DHT22;40340;53.208;6.582;2022-11-04T04:50:50;10.00;99.90
54190;DHT22;40340;53.208;6.582;2022-11-04T04:53:16;10.00;99.90
54190;DHT22;40340;53.208;6.582;2022-11-04T04:55:42;9.90;99.90
54190;DHT22;40340;53.208;6.582;2022-11-04T04:58:08;9.90;99.90
54190;DHT22;40340;53.208;6.582;2022-11-04T05:00:34;9.90;99.90
54190;DHT22;40340;53.208;6.582;2022-11-04T05:02:59;9.90;99.90
54190;DHT22;40340;53.208;6.582;2022-11-04T05:05:25;9.80;99.90
54190;DHT22;40340;53.208;6.582;2022-11-04T05:07:51;9.90;99.90
54190;DHT22;40340;53.208;6.582;2022-11-04T05:10:17;9.80;99.90
54190;DHT22;40340;53.208;6.582;2022-11-04T05:12:43;9.80;99.90
54190;DHT22;40340;53.208;6.582;2022-11-04T05:15:28;9.70;99.90
54190;DHT22;40340;53.208;6.582;2022-11-04T05:17:55;9.70;99.90
54190;DHT22;40340;53.208;6.582;2022-11-04T05:20:22;9.70;99.90
54190;DHT22;40340;53.208;6.582;2022-11-04T05:22:48;9.70;99.90
54190;DHT22;40340;53.208;6.582;2022-11-04T05:25:14;9.70;99.90
54190;DHT22;40340;53.208;6.582;2022-11-04T05:27:40;9.70;99.90
54190;DHT22;40340;53.208;6.582;2022-11-04T05:30:06;9.70;99.90
54190;DHT22;40340;53.208;6.582;2022-11-04T05:32:32;9.70;99.90
54190;DHT22;40340;53.208;6.582;2022-11-04T05:34:58;9.70;99.90
54190;DHT22;40340;53.208;6.582;2022-11-04T05:37:24;9.70;99.90
54190;DHT22;40340;53.208;6.582;2022-11-04T05:39:49;9.70;99.90
54190;DHT22;40340;53.208;6.582;2022-11-04T05:42:15;9.60;99.90
54190;DHT22;40340;53.208;6.582;2022-11-04T05:44:41;9.60;99.90
54190;DHT22;40340;53.208;6.582;2022-11-04T05:47:06;9.60;99.90
54190;DHT22;40340;53.208;6.582;2022-11-04T05:49:32;9.60;99.90
54190;DHT22;40340;53.208;6.582;2022-11-04T05:51:58;9.50;99.90
54190;DHT22;40340;53.208;6.582;2022-11-04T05:54:23;9.50;99.90
54190;DHT22;40340;53.208;6.582;2022-11-04T05:56:49;9.50;99.90
54190;DHT22;40340;53.208;6.582;2022-11-04T05:59:15;9.40;99.90
54190;DHT22;40340;53.208;6.582;2022-11-04T06:01:41;9.40;99.90
54190;DHT22;40340;53.208;6.582;2022-11-04T06:04:13;9.40;99.90
54190;DHT22;40340;53.208;6.582;2022-11-04T06:06:39;9.50;99.90
54190;DHT22;40340;53.208;6.582;2022-11-04T06:09:06;9.40;99.90
54190;DHT22;40340;53.208;6.582;2022-11-04T06:11:41;9.40;99.90
54190;DHT22;40340;53.208;6.582;2022-11-04T06:14:06;9.40;99.90
54190;DHT22;40340;53.208;6.582;2022-11-04T06:16:32;9.50;99.90
54190;DHT22;40340;53.208;6.582;2022-11-04T06:18:58;9.40;99.90
54190;DHT22;40340;53.208;6.582;2022-11-04T06:21:31;9.40;99.90
54190;DHT22;40340;53.208;6.582;2022-11-04T06:23:58;9.40;99.90
54190;DHT22;40340;53.208;6.582;2022-11-04T06:26:27;9.40;99.90
54190;DHT22;40340;53.208;6.582;2022-11-04T06:28:53;9.40;99.90
54190;DHT22;40340;53.208;6.582;2022-11-04T06:31:19;9.40;99.90
54190;DHT22;40340;53.208;6.582;2022-11-04T06:33:45;9.40;99.90
54190;DHT22;40340;53.208;6.582;2022-11-04T06:36:13;9.30;99.90
54190;DHT22;40340;53.208;6.582;2022-11-04T06:38:40;9.30;99.90
54190;DHT22;40340;53.208;6.582;2022-11-04T06:41:07;9.30;99.90
54190;DHT22;40340;53.208;6.582;2022-11-04T06:43:34;9.30;99.90
54190;DHT22;40340;53.208;6.582;2022-11-04T06:46:01;9.30;99.90
54190;DHT22;40340;53.208;6.582;2022-11-04T06:48:28;9.30;99.90
54190;DHT22;40340;53.208;6.582;2022-11-04T06:50:59;9.20;99.90
54190;DHT22;40340;53.208;6.582;2022-11-04T06:53:26;9.20;99.90
54190;DHT22;40340;53.208;6.582;2022-11-04T06:55:52;9.80;99.90
54190;DHT22;40340;53.208;6.582;2022-11-04T06:58:18;9.20;99.90
54190;DHT22;40340;53.208;6.582;2022-11-04T07:00:50;9.20;99.90
54190;DHT22;40340;53.208;6.582;2022-11-04T07:03:16;9.20;99.90
54190;DHT22;40340;53.208;6.582;2022-11-04T07:05:42;9.20;99.90
54190;DHT22;40340;53.208;6.582;2022-11-04T07:08:07;9.20;99.90
54190;DHT22;40340;53.208;6.582;2022-11-04T07:10:33;9.20;99.90
54190;DHT22;40340;53.208;6.582;2022-11-04T07:12:59;9.20;99.90
54190;DHT22;40340;53.208;6.582;2022-11-04T07:15:24;9.20;99.90
54190;DHT22;40340;53.208;6.582;2022-11-04T07:17:50;9.20;99.90
54190;DHT22;40340;53.208;6.582;2022-11-04T07:20:16;9.20;99.90
54190;DHT22;40340;53.208;6.582;2022-11-04T07:22:41;9.10;99.90
54190;DHT22;40340;53.208;6.582;2022-11-04T07:25:07;9.20;99.90
54190;DHT22;40340;53.208;6.582;2022-11-04T07:27:33;9.10;99.90
54190;DHT22;40340;53.208;6.582;2022-11-04T07:29:59;9.10;99.90
54190;DHT22;40340;53.208;6.582;2022-11-04T07:32:24;9.10;99.90
54190;DHT22;40340;53.208;6.582;2022-11-04T07:34:50;9.10;99.90
54190;DHT22;40340;53.208;6.582;2022-11-04T07:37:16;9.20;99.90
54190;DHT22;40340;53.208;6.582;2022-11-04T07:39:41;9.20;99.90
54190;DHT22;40340;53.208;6.582;2022-11-04T07:42:07;9.10;99.90
54190;DHT22;40340;53.208;6.582;2022-11-04T07:44:33;9.10;99.90
54190;DHT22;40340;53.208;6.582;2022-11-04T07:46:58;9.10;99.90
54190;DHT22;40340;53.208;6.582;2022-11-04T07:49:24;9.20;99.90
54190;DHT22;40340;53.208;6.582;2022-11-04T07:51:50;9.20;99.90
54190;DHT22;40340;53.208;6.582;2022-11-04T07:54:16;9.20;99.90
54190;DHT22;40340;53.208;6.582;2022-11-04T07:56:42;9.10;99.90
54190;DHT22;40340;53.208;6.582;2022-11-04T07:59:07;9.30;99.90
54190;DHT22;40340;53.208;6.582;2022-11-04T08:01:33;9.20;99.90
54190;DHT22;40340;53.208;6.582;2022-11-04T08:03:59;9.20;99.90
54190;DHT22;40340;53.208;6.582;2022-11-04T08:06:25;9.20;99.90
54190;DHT22;40340;53.208;6.582;2022-11-04T08:08:50;9.20;99.90
54190;DHT22;40340;53.208;6.582;2022-11-04T08:11:20;9.20;99.90
54190;DHT22;40340;53.208;6.582;2022-11-04T08:13:46;9.20;99.90
54190;DHT22;40340;53.208;6.582;2022-11-04T08:16:14;9.30;99.90
54190;DHT22;40340;53.208;6.582;2022-11-04T08:18:40;9.30;99.90
54190;DHT22;40340;53.208;6.582;2022-11-04T08:21:07;9.40;99.90
54190;DHT22;40340;53.208;6.582;2022-11-04T08:23:33;9.30;99.90
54190;DHT22;40340;53.208;6.582;2022-11-04T08:25:59;9.40;99.90
54190;DHT22;40340;53.208;6.582;2022-11-04T08:28:25;9.40;99.90
54190;DHT22;40340;53.208;6.582;2022-11-04T08:30:57;9.40;99.90
54190;DHT22;40340;53.208;6.582;2022-11-04T08:33:24;9.50;99.90
54190;DHT22;40340;53.208;6.582;2022-11-04T08:35:51;9.50;99.90
54190;DHT22;40340;53.208;6.582;2022-11-04T08:38:16;9.70;99.90
54190;DHT22;40340;53.208;6.582;2022-11-04T08:40:43;9.70;99.90
54190;DHT22;40340;53.208;6.582;2022-11-04T08:43:08;9.80;99.90
54190;DHT22;40340;53.208;6.582;2022-11-04T08:45:39;10.00;99.90
54190;DHT22;40340;53.208;6.582;2022-11-04T08:48:05;10.40;99.90
54190;DHT22;40340;53.208;6.582;2022-11-04T08:50:30;11.30;99.90
54190;DHT22;40340;53.208;6.582;2022-11-04T08:52:56;11.90;99.90
54190;DHT22;40340;53.208;6.582;2022-11-04T08:55:22;12.70;99.90
54190;DHT22;40340;53.208;6.582;2022-11-04T08:57:48;12.80;99.90
54190;DHT22;40340;53.208;6.582;2022-11-04T09:00:14;13.30;99.90
54190;DHT22;40340;53.208;6.582;2022-11-04T09:02:41;13.50;99.90
54190;DHT22;40340;53.208;6.582;2022-11-04T09:05:07;13.90;99.90
54190;DHT22;40340;53.208;6.582;2022-11-04T09:07:32;14.00;99.90
54190;DHT22;40340;53.208;6.582;2022-11-04T09:09:59;14.30;99.90
54190;DHT22;40340;53.208;6.582;2022-11-04T09:12:26;14.60;99.90
54190;DHT22;40340;53.208;6.582;2022-11-04T09:14:52;14.80;99.90
54190;DHT22;40340;53.208;6.582;2022-11-04T09:17:18;14.80;99.90
54190;DHT22;40340;53.208;6.582;2022-11-04T09:19:43;15.00;99.90
54190;DHT22;40340;53.208;6.582;2022-11-04T09:22:09;15.20;99.90
54190;DHT22;40340;53.208;6.582;2022-11-04T09:24:34;15.10;99.90
54190;DHT22;40340;53.208;6.582;2022-11-04T09:27:00;15.20;99.90
54190;DHT22;40340;53.208;6.582;2022-11-04T09:29:25;15.60;99.90
54190;DHT22;40340;53.208;6.582;2022-11-04T09:31:51;15.40;99.90
54190;DHT22;40340;53.208;6.582;2022-11-04T09:34:17;15.80;99.90
54190;DHT22;40340;53.208;6.582;2022-11-04T09:36:43;15.80;99.90
54190;DHT22;40340;53.208;6.582;2022-11-04T09:39:09;16.10;99.90
54190;DHT22;40340;53.208;6.582;2022-11-04T09:45:00;17.30;99.90
54190;DHT22;40340;53.208;6.582;2022-11-04T09:47:28;17.20;99.90
54190;DHT22;40340;53.208;6.582;2022-11-04T09:49:57;17.60;99.90
54190;DHT22;40340;53.208;6.582;2022-11-04T09:52:25;17.60;99.90
54190;DHT22;40340;53.208;6.582;2022-11-04T09:55:02;18.00;99.90
54190;DHT22;40340;53.208;6.582;2022-11-04T09:57:31;17.50;99.90
54190;DHT22;40340;53.208;6.582;2022-11-04T09:59:57;17.60;99.90
54190;DHT22;40340;53.208;6.582;2022-11-04T10:11:43;17.80;99.90
54190;DHT22;40340;53.208;6.582;2022-11-04T10:17:01;18.60;99.90
54190;DHT22;40340;53.208;6.582;2022-11-04T10:22:31;18.00;99.90
54190;DHT22;40340;53.208;6.582;2022-11-04T10:25:27;17.50;99.90
54190;DHT22;40340;53.208;6.582;2022-11-04T10:27:56;16.70;99.90
54190;DHT22;40340;53.208;6.582;2022-11-04T10:30:24;16.50;99.90
54190;DHT22;40340;53.208;6.582;2022-11-04T10:32:58;16.10;99.90
54190;DHT22;40340;53.208;6.582;2022-11-04T10:35:36;15.50;99.90
54190;DHT22;40340;53.208;6.582;2022-11-04T10:40:46;15.10;99.90
54190;DHT22;40340;53.208;6.582;2022-11-04T10:43:15;15.00;99.90
54190;DHT22;40340;53.208;6.582;2022-11-04T10:48:31;14.80;99.90
54190;DHT22;40340;53.208;6.582;2022-11-04T10:50:59;14.60;99.90
54190;DHT22;40340;53.208;6.582;2022-11-04T10:53:27;14.40;99.90
54190;DHT22;40340;53.208;6.582;2022-11-04T10:58:41;14.40;99.90
54190;DHT22;40340;53.208;6.582;2022-11-04T11:01:31;14.20;99.90
54190;DHT22;40340;53.208;6.582;2022-11-04T11:03:57;14.30;99.90
54190;DHT22;40340;53.208;6.582;2022-11-04T11:08:55;14.20;99.90
54190;DHT22;40340;53.208;6.582;2022-11-04T11:11:40;14.20;99.90
54190;DHT22;40340;53.208;6.582;2022-11-04T11:14:32;14.20;99.90
54190;DHT22;40340;53.208;6.582;2022-11-04T11:17:19;14.20;99.90
54190;DHT22;40340;53.208;6.582;2022-11-04T11:19:56;14.30;99.90
54190;DHT22;40340;53.208;6.582;2022-11-04T11:22:37;14.30;99.90
54190;DHT22;40340;53.208;6.582;2022-11-04T11:25:24;14.60;99.90
54190;DHT22;40340;53.208;6.582;2022-11-04T11:27:58;14.50;99.90
54190;DHT22;40340;53.208;6.582;2022-11-04T11:30:36;14.30;99.90
54190;DHT22;40340;53.208;6.582;2022-11-04T11:33:29;14.30;99.90
54190;DHT22;40340;53.208;6.582;2022-11-04T11:36:02;14.50;99.90
54190;DHT22;40340;53.208;6.582;2022-11-04T11:38:31;14.50;99.90
54190;DHT22;40340;53.208;6.582;2022-11-04T11:41:13;14.30;99.90
54190;DHT22;40340;53.208;6.582;2022-11-04T11:43:48;14.30;99.90
54190;DHT22;40340;53.208;6.582;2022-11-04T11:46:24;14.10;99.90
54190;DHT22;40340;53.208;6.582;2022-11-04T11:48:52;13.80;99.90
54190;DHT22;40340;53.208;6.582;2022-11-04T11:51:43;13.50;99.90
54190;DHT22;40340;53.208;6.582;2022-11-04T11:54:32;13.40;99.90
54190;DHT22;40340;53.208;6.582;2022-11-04T11:57:02;13.00;99.90
54190;DHT22;40340;53.208;6.582;2022-11-04T11:59:43;12.70;99.90
54190;DHT22;40340;53.208;6.582;2022-11-04T12:02:27;12.30;99.90
54190;DHT22;40340;53.208;6.582;2022-11-04T12:04:56;12.10;99.90
54190;DHT22;40340;53.208;6.582;2022-11-04T12:10:54;11.90;99.90
54190;DHT22;40340;53.208;6.582;2022-11-04T12:13:26;12.00;99.90
54190;DHT22;40340;53.208;6.582;2022-11-04T12:16:07;12.00;99.90
54190;DHT22;40340;53.208;6.582;2022-11-04T12:21:48;12.00;99.90
54190;DHT22;40340;53.208;6.582;2022-11-04T12:24:24;11.90;99.90
54190;DHT22;40340;53.208;6.582;2022-11-04T12:26:57;11.90;99.90
54190;DHT22;40340;53.208;6.582;2022-11-04T12:32:02;11.80;99.90
54190;DHT22;40340;53.208;6.582;2022-11-04T12:43:14;12.00;99.90
54190;DHT22;40340;53.208;6.582;2022-11-04T12:54:23;12.60;99.90
54190;DHT22;40340;53.208;6.582;2022-11-04T12:57:01;12.90;99.90
54190;DHT22;40340;53.208;6.582;2022-11-04T12:59:53;13.40;99.90
54190;DHT22;40340;53.208;6.582;2022-11-04T13:02:27;13.60;99.90
54190;DHT22;40340;53.208;6.582;2022-11-04T13:08:12;14.50;99.90
54190;DHT22;40340;53.208;6.582;2022-11-04T13:10:45;14.50;99.90
54190;DHT22;40340;53.208;6.582;2022-11-04T13:13:14;14.60;99.90
54190;DHT22;40340;53.208;6.582;2022-11-04T13:15:54;15.00;99.90
54190;DHT22;40340;53.208;6.582;2022-11-04T13:18:25;15.30;99.90
54190;DHT22;40340;53.208;6.582;2022-11-04T13:23:26;15.70;99.90
54190;DHT22;40340;53.208;6.582;2022-11-04T13:25:54;15.70;99.90
54190;DHT22;40340;53.208;6.582;2022-11-04T13:28:21;15.60;99.90
54190;DHT22;40340;53.208;6.582;2022-11-04T13:33:32;15.70;99.90
54190;DHT22;40340;53.208;6.582;2022-11-04T13:36:13;15.70;99.90
54190;DHT22;40340;53.208;6.582;2022-11-04T13:38:46;15.80;99.90
54190;DHT22;40340;53.208;6.582;2022-11-04T13:41:45;15.40;99.90
54190;DHT22;40340;53.208;6.582;2022-11-04T13:44:35;15.50;99.90
54190;DHT22;40340;53.208;6.582;2022-11-04T13:47:04;15.50;99.90
54190;DHT22;40340;53.208;6.582;2022-11-04T13:49:32;15.50;99.90
54190;DHT22;40340;53.208;6.582;2022-11-04T13:52:10;15.40;99.90
54190;DHT22;40340;53.208;6.582;2022-11-04T13:57:25;15.30;99.90
54190;DHT22;40340;53.208;6.582;2022-11-04T14:00:17;15.30;99.90
54190;DHT22;40340;53.208;6.582;2022-11-04T14:02:48;14.80;99.90
54190;DHT22;40340;53.208;6.582;2022-11-04T14:10:57;14.20;99.90
54190;DHT22;40340;53.208;6.582;2022-11-04T14:18:49;13.70;99.90
54190;DHT22;40340;53.208;6.582;2022-11-04T14:21:17;13.60;99.90
54190;DHT22;40340;53.208;6.582;2022-11-04T14:23:49;13.50;99.90
54190;DHT22;40340;53.208;6.582;2022-11-04T14:26:17;13.20;99.90
54190;DHT22;40340;53.208;6.582;2022-11-04T14:28:46;13.20;99.90
54190;DHT22;40340;53.208;6.582;2022-11-04T14:31:37;13.10;99.90
54190;DHT22;40340;53.208;6.582;2022-11-04T14:34:04;13.00;99.90
54190;DHT22;40340;53.208;6.582;2022-11-04T14:41:58;13.90;99.90
54190;DHT22;40340;53.208;6.582;2022-11-04T14:47:26;13.70;99.90
54190;DHT22;40340;53.208;6.582;2022-11-04T14:55:15;13.20;99.90
54190;DHT22;40340;53.208;6.582;2022-11-04T14:57:42;13.20;99.90
54190;DHT22;40340;53.208;6.582;2022-11-04T15:05:31;12.90;99.90
54190;DHT22;40340;53.208;6.582;2022-11-04T15:10:48;12.70;99.90
54190;DHT22;40340;53.208;6.582;2022-11-04T15:13:18;12.70;99.90
54190;DHT22;40340;53.208;6.582;2022-11-04T15:15:45;12.70;99.90
54190;DHT22;40340;53.208;6.582;2022-11-04T15:18:18;12.60;99.90
54190;DHT22;40340;53.208;6.582;2022-11-04T15:20:48;12.60;99.90
54190;DHT22;40340;53.208;6.582;2022-11-04T15:23:16;12.50;99.90
54190;DHT22;40340;53.208;6.582;2022-11-04T15:25:48;12.60;99.90
54190;DHT22;40340;53.208;6.582;2022-11-04T15:28:23;12.50;99.90
54190;DHT22;40340;53.208;6.582;2022-11-04T15:31:14;12.50;99.90
54190;DHT22;40340;53.208;6.582;2022-11-04T15:33:46;12.50;99.90
54190;DHT22;40340;53.208;6.582;2022-11-04T15:36:18;12.40;99.90
54190;DHT22;40340;53.208;6.582;2022-11-04T15:38:55;12.40;99.90
54190;DHT22;40340;53.208;6.582;2022-11-04T15:41:22;12.40;99.90
54190;DHT22;40340;53.208;6.582;2022-11-04T15:44:22;12.30;99.90
54190;DHT22;40340;53.208;6.582;2022-11-04T15:46:57;12.30;99.90
54190;DHT22;40340;53.208;6.582;2022-11-04T15:49:29;12.30;99.90
54190;DHT22;40340;53.208;6.582;2022-11-04T15:51:59;12.30;99.90
54190;DHT22;40340;53.208;6.582;2022-11-04T15:54:30;12.20;99.90
54190;DHT22;40340;53.208;6.582;2022-11-04T15:56:59;12.20;99.90
54190;DHT22;40340;53.208;6.582;2022-11-04T15:59:33;12.20;99.90
54190;DHT22;40340;53.208;6.582;2022-11-04T16:02:01;12.10;99.90
54190;DHT22;40340;53.208;6.582;2022-11-04T16:04:28;12.00;99.90
54190;DHT22;40340;53.208;6.582;2022-11-04T16:07:04;12.00;99.90
54190;DHT22;40340;53.208;6.582;2022-11-04T16:09:30;11.90;99.90
54190;DHT22;40340;53.208;6.582;2022-11-04T16:12:33;11.80;99.90
54190;DHT22;40340;53.208;6.582;2022-11-04T16:14:56;11.70;99.90
54190;DHT22;40340;53.208;6.582;2022-11-04T16:17:23;11.60;99.90
54190;DHT22;40340;53.208;6.582;2022-11-04T16:19:58;11.60;99.90
54190;DHT22;40340;53.208;6.582;2022-11-04T16:22:32;11.50;99.90
54190;DHT22;40340;53.208;6.582;2022-11-04T16:25:00;11.50;99.90
54190;DHT22;40340;53.208;6.582;2022-11-04T16:27:27;11.50;99.90
54190;DHT22;40340;53.208;6.582;2022-11-04T16:30:17;11.40;99.90
54190;DHT22;40340;53.208;6.582;2022-11-04T16:32:46;11.50;99.90
54190;DHT22;40340;53.208;6.582;2022-11-04T16:37:47;11.40;99.90
54190;DHT22;40340;53.208;6.582;2022-11-04T16:40:13;11.30;99.90
54190;DHT22;40340;53.208;6.582;2022-11-04T16:42:40;11.30;99.90
54190;DHT22;40340;53.208;6.582;2022-11-04T16:45:09;11.20;99.90
54190;DHT22;40340;53.208;6.582;2022-11-04T16:47:41;11.20;99.90
54190;DHT22;40340;53.208;6.582;2022-11-04T16:50:12;11.20;99.90
54190;DHT22;40340;53.208;6.582;2022-11-04T16:52:40;11.10;99.90
54190;DHT22;40340;53.208;6.582;2022-11-04T16:55:06;11.00;99.90
54190;DHT22;40340;53.208;6.582;2022-11-04T16:57:33;11.00;99.90
54190;DHT22;40340;53.208;6.582;2022-11-04T16:59:59;11.00;99.90
54190;DHT22;40340;53.208;6.582;2022-11-04T17:02:26;11.00;99.90
54190;DHT22;40340;53.208;6.582;2022-11-04T17:04:53;11.00;99.90
54190;DHT22;40340;53.208;6.582;2022-11-04T17:07:19;11.00;99.90
54190;DHT22;40340;53.208;6.582;2022-11-04T17:09:45;11.00;99.90
54190;DHT22;40340;53.208;6.582;2022-11-04T17:12:11;10.90;99.90
54190;DHT22;40340;53.208;6.582;2022-11-04T17:14:36;10.90;99.90
54190;DHT22;40340;53.208;6.582;2022-11-04T17:17:03;10.90;99.90
54190;DHT22;40340;53.208;6.582;2022-11-04T17:19:29;10.80;99.90
54190;DHT22;40340;53.208;6.582;2022-11-04T17:21:56;10.70;99.90
54190;DHT22;40340;53.208;6.582;2022-11-04T17:24:23;10.70;99.90
54190;DHT22;40340;53.208;6.582;2022-11-04T17:26:49;10.70;99.90
54190;DHT22;40340;53.208;6.582;2022-11-04T17:29:15;10.70;99.90
54190;DHT22;40340;53.208;6.582;2022-11-04T17:31:40;10.60;99.90
54190;DHT22;40340;53.208;6.582;2022-11-04T17:34:07;10.60;99.90
54190;DHT22;40340;53.208;6.582;2022-11-04T17:36:33;10.60;99.90
54190;DHT22;40340;53.208;6.582;2022-11-04T17:38:59;10.50;99.90
54190;DHT22;40340;53.208;6.582;2022-11-04T17:41:25;10.50;99.90
54190;DHT22;40340;53.208;6.582;2022-11-04T17:44:09;10.60;99.90
54190;DHT22;40340;53.208;6.582;2022-11-04T17:46:35;10.60;99.90
54190;DHT22;40340;53.208;6.582;2022-11-04T17:49:11;10.50;99.90
54190;DHT22;40340;53.208;6.582;2022-11-04T17:51:38;10.60;99.90
54190;DHT22;40340;53.208;6.582;2022-11-04T17:54:05;10.50;99.90
54190;DHT22;40340;53.208;6.582;2022-11-04T17:56:31;10.50;99.90
54190;DHT22;40340;53.208;6.582;2022-11-04T17:59:00;10.50;99.90
54190;DHT22;40340;53.208;6.582;2022-11-04T18:01:26;10.40;99.90
54190;DHT22;40340;53.208;6.582;2022-11-04T18:03:53;10.40;99.90
54190;DHT22;40340;53.208;6.582;2022-11-04T18:06:20;10.40;99.90
54190;DHT22;40340;53.208;6.582;2022-11-04T18:08:45;10.30;99.90
54190;DHT22;40340;53.208;6.582;2022-11-04T18:11:12;10.20;99.90
54190;DHT22;40340;53.208;6.582;2022-11-04T18:13:57;10.20;99.90
54190;DHT22;40340;53.208;6.582;2022-11-04T18:16:23;10.20;99.90
54190;DHT22;40340;53.208;6.582;2022-11-04T18:18:49;10.20;99.90